Aviation Digital Data Service (ADDS)

Output produced by METARs form (0211 UTC 24 November 2017)
found at http://www.aviationweather.gov/adds/metars/
 
Forecast for: WADL (BANDARA , ID)
Text: TAF WADL 232300Z 2400/2424 270015KT 9000 SCT016
Forecast period: 0000 to 1200 UTC 24 November 2017
Forecast type: FROM: standard forecast or significant change
Winds: from the W (270 degrees) at 17 MPH (15 knots; 7.8 m/s)
Visibility: 6 miles (9 km)
Clouds: scattered clouds at 1600 feet AGL
Weather: no significant weather forecast for this period
Text: TEMPO 2408/2412 3000 TSRA FEW015CB
Forecast period: 0800 to 1200 UTC 24 November 2017
Forecast type: TEMPORARY: The following changes expected for less than half the time period
Visibility: 1.86 miles (2.99 km)
Clouds: few clouds at 1500 feet AGL
Weather: TSRA  (rain associated with thunderstorm(s))
Text: BECMG 2412/2415 25003KT
Forecast period: 1200 UTC 24 November 2017 to 0000 UTC 25 November 2017
Forecast type: BECOMING: Conditions expected to become as follows by 1500 UTC 24 November 2017
Winds: from the WSW (250 degrees) at 3 MPH (3 knots; 1.6 m/s)
Visibility: 6 miles (9 km)
Clouds: scattered clouds at 1600 feet AGL
Weather: no significant weather forecast for this period